Time;durP1;ratioP1;P1;durP2;ratioP2;P2;SDS_P1;SDS_P2;PMS_P1;PMS_P2;Temp;Humidity;BMP_temperature;BMP_pressure;BME280_temperature;BME280_humidity;BME280_pressure;Samples;Min_cycle;Max_cycle;Signal;HPM_P1;HPM_P2
2023/04/13 00:00:43;;;;;;;16.33;5.80;;;;;;;42.47;34.89;100903.53;6159553;23;20407;-82
2023/04/13 00:03:15;;;;;;;8.43;4.60;;;;;;;42.37;35.04;100891.13;6159679;23;20373;-83
2023/04/13 00:05:42;;;;;;;20.53;6.03;;;;;;;42.38;34.94;100887.28;6159630;23;20718;-83
2023/04/13 00:08:08;;;;;;;10.93;5.00;;;;;;;42.23;35.41;100891.41;6159701;23;20383;-83
2023/04/13 00:10:35;;;;;;;28.23;7.70;;;;;;;42.30;35.11;100894.41;6159446;23;20380;-82
2023/04/13 00:13:03;;;;;;;15.03;5.10;;;;;;;42.22;35.29;100881.63;6159237;23;20380;-83
2023/04/13 00:15:30;;;;;;;16.80;5.37;;;;;;;42.21;35.17;100876.53;6159607;23;20412;-82
2023/04/13 00:17:57;;;;;;;21.87;5.20;;;;;;;42.27;35.23;100875.97;6159481;23;20826;-83
2023/04/13 00:20:23;;;;;;;22.03;7.13;;;;;;;42.24;35.37;100871.22;6159311;23;20376;-83
2023/04/13 00:22:49;;;;;;;23.70;7.33;;;;;;;42.28;35.14;100861.22;6159498;23;20391;-83
2023/04/13 00:25:15;;;;;;;18.60;4.43;;;;;;;42.35;35.30;100858.72;6159331;23;20384;-82
2023/04/13 00:27:42;;;;;;;12.17;4.80;;;;;;;42.37;35.49;100863.88;6159356;23;20440;-83
2023/04/13 00:30:15;;;;;;;16.43;7.30;;;;;;;42.38;35.04;100858.06;6186099;23;20463;-83
2023/04/13 00:32:43;;;;;;;12.00;5.87;;;;;;;42.15;35.92;100859.56;6159300;23;20392;-83
2023/04/13 00:35:11;;;;;;;17.30;5.40;;;;;;;42.29;35.40;100851.09;6159562;23;20494;-83
2023/04/13 00:37:37;;;;;;;15.20;6.23;;;;;;;42.34;35.32;100848.16;6158947;23;20440;-83
2023/04/13 00:40:05;;;;;;;20.60;6.37;;;;;;;42.27;35.13;100847.94;6159211;23;20480;-84
2023/04/13 00:42:30;;;;;;;15.40;6.83;;;;;;;42.20;35.16;100839.50;6159192;23;20416;-84
2023/04/13 00:44:56;;;;;;;18.90;6.50;;;;;;;42.27;34.63;100837.81;6159583;23;20391;-84
2023/04/13 00:47:28;;;;;;;18.20;5.70;;;;;;;42.26;34.86;100835.44;6158706;23;20184;-84
2023/04/13 00:50:00;;;;;;;18.27;4.80;;;;;;;42.11;35.09;100825.91;6158893;23;20216;-84
2023/04/13 00:52:27;;;;;;;21.80;7.23;;;;;;;42.16;35.13;100827.66;6159192;23;20419;-84
2023/04/13 00:54:56;;;;;;;13.93;5.23;;;;;;;42.28;35.25;100820.31;6159381;23;20471;-84
2023/04/13 00:57:24;;;;;;;19.53;6.77;;;;;;;42.39;35.17;100815.25;6158846;23;20428;-84
2023/04/13 00:59:51;;;;;;;14.43;5.60;;;;;;;42.26;34.90;100808.19;6158994;23;20388;-83
2023/04/13 01:02:21;;;;;;;25.93;7.23;;;;;;;42.30;34.72;100804.44;6159085;23;20491;-83
2023/04/13 01:04:48;;;;;;;19.23;5.70;;;;;;;42.39;34.62;100805.13;6159155;23;20392;-82
2023/04/13 01:07:50;;;;;;;22.47;6.87;;;;;;;42.17;35.26;100796.56;6159046;23;20731;-82
2023/04/13 01:10:18;;;;;;;15.43;6.60;;;;;;;42.36;34.99;100783.22;6159401;23;20438;-82
2023/04/13 01:12:55;;;;;;;15.97;5.40;;;;;;;42.22;35.24;100788.97;6185946;23;20381;-83
2023/04/13 01:15:22;;;;;;;13.60;5.10;;;;;;;42.12;34.62;100792.09;6159479;23;20939;-83
2023/04/13 01:17:55;;;;;;;14.47;7.23;;;;;;;42.16;35.40;100787.59;6158795;23;20423;-84
2023/04/13 01:20:24;;;;;;;21.90;6.10;;;;;;;42.27;35.41;100786.03;6158614;23;20852;-82
2023/04/13 01:22:56;;;;;;;13.30;5.17;;;;;;;42.13;35.90;100780.84;6159304;23;20527;-83
2023/04/13 01:25:59;;;;;;;13.97;5.30;;;;;;;42.21;35.64;100775.69;6158667;23;20773;-82
2023/04/13 01:28:27;;;;;;;14.30;6.37;;;;;;;42.03;35.74;100780.47;6158729;23;20376;-82
2023/04/13 01:30:54;;;;;;;13.40;5.73;;;;;;;42.06;35.57;100774.38;6159134;23;20384;-84
2023/04/13 01:33:21;;;;;;;16.00;5.80;;;;;;;42.09;36.14;100771.75;6158985;23;20376;-82
2023/04/13 01:35:48;;;;;;;20.10;6.43;;;;;;;42.17;36.25;100772.03;6158686;23;20391;-83
2023/04/13 01:38:14;;;;;;;25.80;5.43;;;;;;;42.16;36.11;100768.50;6158679;23;20424;-82
2023/04/13 01:40:41;;;;;;;17.60;6.17;;;;;;;42.20;36.10;100772.16;6158606;23;20876;-83
2023/04/13 01:43:07;;;;;;;20.53;4.90;;;;;;;42.19;36.08;100772.50;6184964;23;20157;-83
2023/04/13 01:45:52;;;;;;;16.93;5.60;;;;;;;42.15;35.95;100747.81;6158460;23;20438;-82
2023/04/13 01:48:34;;;;;;;10.07;5.37;;;;;;;42.13;36.41;100756.34;6158767;23;20384;-83
2023/04/13 01:51:07;;;;;;;18.50;7.17;;;;;;;42.18;35.67;100749.09;6158030;23;20939;-82
2023/04/13 01:53:41;;;;;;;17.60;6.17;;;;;;;42.08;36.12;100756.53;6158963;23;20392;-82
2023/04/13 01:56:08;;;;;;;27.20;8.67;;;;;;;42.12;36.45;100743.03;6158473;23;20388;-82
2023/04/13 01:58:36;;;;;;;19.70;8.97;;;;;;;42.21;36.07;100741.03;6158820;23;20432;-82
2023/04/13 02:01:06;;;;;;;22.07;6.43;;;;;;;42.19;36.11;100735.13;6158285;23;20817;-82
2023/04/13 02:03:34;;;;;;;17.67;5.60;;;;;;;42.25;35.79;100735.72;6158645;23;20384;-82
2023/04/13 02:06:01;;;;;;;16.13;5.67;;;;;;;42.17;36.06;100731.94;6158438;23;20384;-82
2023/04/13 02:08:28;;;;;;;27.23;9.37;;;;;;;42.28;36.05;100732.28;6158334;23;20388;-82
2023/04/13 02:10:54;;;;;;;16.73;6.03;;;;;;;42.21;36.21;100723.88;6158510;23;20388;-82
2023/04/13 02:13:20;;;;;;;17.23;6.83;;;;;;;42.31;35.59;100726.97;6158366;23;20387;-82
2023/04/13 02:15:46;;;;;;;17.97;6.43;;;;;;;42.21;36.21;100721.94;6158045;23;20486;-83
2023/04/13 02:18:12;;;;;;;21.87;6.10;;;;;;;42.20;36.22;100728.53;6158184;23;20428;-83
2023/04/13 02:20:43;;;;;;;15.60;5.00;;;;;;;42.20;35.79;100723.09;6158604;23;20384;-84
2023/04/13 02:23:10;;;;;;;13.27;7.00;;;;;;;42.11;36.20;100728.63;6158324;23;20471;-84
2023/04/13 02:25:37;;;;;;;14.70;6.53;;;;;;;42.18;35.87;100724.59;6158447;23;20392;-82
2023/04/13 02:28:03;;;;;;;14.40;6.20;;;;;;;42.00;36.26;100724.75;6158207;23;20380;-82
2023/04/13 02:30:29;;;;;;;14.20;5.33;;;;;;;41.91;36.44;100718.59;6157882;23;20410;-83
2023/04/13 02:32:55;;;;;;;13.63;6.07;;;;;;;41.98;36.49;100713.38;6157868;23;20416;-82
2023/04/13 02:35:21;;;;;;;25.03;8.10;;;;;;;42.21;36.00;100713.78;6158103;23;20475;-83
2023/04/13 02:37:47;;;;;;;15.07;5.70;;;;;;;42.26;35.96;100701.84;6158300;23;20188;-83
2023/04/13 02:40:14;;;;;;;15.63;7.00;;;;;;;42.16;35.93;100703.09;6158341;23;20395;-84
2023/04/13 02:42:41;;;;;;;14.57;5.50;;;;;;;42.09;36.20;100694.66;6157694;23;20450;-83
2023/04/13 02:45:16;;;;;;;17.87;9.00;;;;;;;42.18;35.93;100694.59;6158323;23;20431;-83
2023/04/13 02:47:43;;;;;;;17.63;6.20;;;;;;;42.25;35.86;100694.81;6184993;23;20671;-83
2023/04/13 02:50:11;;;;;;;12.33;6.60;;;;;;;42.16;36.17;100699.53;6158023;23;20500;-82
2023/04/13 02:52:37;;;;;;;15.63;6.03;;;;;;;42.12;36.17;100691.28;6158270;23;20372;-82
2023/04/13 02:55:04;;;;;;;18.00;5.93;;;;;;;42.15;36.05;100687.84;6158130;23;20503;-82
2023/04/13 02:57:30;;;;;;;12.20;6.63;;;;;;;42.18;35.98;100683.69;6157698;23;20180;-82
2023/04/13 02:59:57;;;;;;;9.83;5.10;;;;;;;42.23;36.02;100683.44;6158001;23;20439;-82
2023/04/13 03:02:25;;;;;;;25.27;8.70;;;;;;;42.20;35.99;100678.69;6184875;23;20399;-82
2023/04/13 03:04:51;;;;;;;17.83;7.30;;;;;;;42.26;35.85;100675.38;6160267;23;20849;-83
2023/04/13 03:07:17;;;;;;;17.90;5.63;;;;;;;42.20;35.56;100673.22;6159962;23;20406;-82
2023/04/13 03:09:47;;;;;;;11.57;4.93;;;;;;;42.23;35.67;100673.34;6160287;23;20379;-83
2023/04/13 03:12:13;;;;;;;17.60;5.57;;;;;;;42.22;35.91;100665.50;6160066;23;20559;-83
2023/04/13 03:14:39;;;;;;;18.73;6.63;;;;;;;42.23;36.19;100673.34;6160441;23;20388;-82
2023/04/13 03:17:10;;;;;;;21.13;6.50;;;;;;;42.12;36.03;100674.91;6160137;23;20430;-82
2023/04/13 03:19:36;;;;;;;12.00;4.70;;;;;;;42.01;36.28;100673.75;6187016;23;20357;-82
2023/04/13 03:22:02;;;;;;;15.17;5.60;;;;;;;42.05;36.42;100674.66;6160175;23;20442;-83
2023/04/13 03:24:28;;;;;;;22.83;10.00;;;;;;;42.14;36.43;100678.09;6160084;23;20180;-82
2023/04/13 03:26:55;;;;;;;21.13;8.03;;;;;;;42.12;36.36;100680.38;6159851;23;20864;-82
2023/04/13 03:29:23;;;;;;;17.60;6.80;;;;;;;42.16;36.04;100675.00;6159658;23;20467;-82
2023/04/13 03:31:50;;;;;;;18.90;6.57;;;;;;;42.14;36.18;100667.97;6159964;23;20510;-83
2023/04/13 03:34:17;;;;;;;17.93;5.37;;;;;;;42.06;36.43;100673.53;6159907;23;20408;-82
2023/04/13 03:36:43;;;;;;;24.10;6.37;;;;;;;42.04;35.99;100673.88;6159829;23;20934;-83
2023/04/13 03:39:09;;;;;;;21.90;6.13;;;;;;;42.18;36.26;100668.13;6186061;23;20406;-83
2023/04/13 03:41:35;;;;;;;15.03;6.33;;;;;;;42.12;36.58;100677.63;6159669;23;20412;-83
2023/04/13 03:44:01;;;;;;;16.50;6.07;;;;;;;42.10;36.11;100677.97;6159572;23;20419;-83
2023/04/13 03:46:27;;;;;;;12.90;5.70;;;;;;;42.01;35.88;100668.31;6159878;23;20419;-83
2023/04/13 03:48:53;;;;;;;12.57;5.87;;;;;;;41.98;36.21;100672.50;6159802;23;20379;-82
2023/04/13 03:51:20;;;;;;;22.33;6.30;;;;;;;42.13;35.71;100673.78;6184787;23;20506;-82
2023/04/13 03:53:46;;;;;;;17.53;7.70;;;;;;;42.07;35.95;100675.13;6159927;23;20391;-82
2023/04/13 03:56:12;;;;;;;17.03;5.23;;;;;;;42.01;35.86;100673.75;6159745;23;20410;-83
2023/04/13 03:58:38;;;;;;;15.53;6.00;;;;;;;42.05;35.68;100671.94;6159332;23;20191;-83
2023/04/13 04:01:05;;;;;;;32.40;6.20;;;;;;;42.02;35.89;100675.34;6160642;23;20395;-81
2023/04/13 04:03:31;;;;;;;16.00;6.30;;;;;;;42.00;35.95;100678.41;6187686;23;20384;-83
2023/04/13 04:05:57;;;;;;;13.97;6.60;;;;;;;42.02;36.10;100673.41;6185514;23;20380;-83
2023/04/13 04:08:23;;;;;;;20.70;6.50;;;;;;;42.09;35.33;100676.38;6159676;23;20384;-83
2023/04/13 04:10:49;;;;;;;17.50;7.90;;;;;;;42.12;35.62;100674.91;6160012;23;20727;-82
2023/04/13 04:13:15;;;;;;;13.57;6.60;;;;;;;42.01;35.90;100685.47;6159550;23;20152;-82
2023/04/13 04:15:41;;;;;;;13.30;7.30;;;;;;;41.88;35.75;100692.03;6159325;23;20153;-82
2023/04/13 04:18:07;;;;;;;17.93;5.67;;;;;;;42.06;35.54;100693.41;6159660;23;20442;-82
2023/04/13 04:20:33;;;;;;;21.17;7.30;;;;;;;42.12;36.14;100708.41;6186214;23;20133;-82
2023/04/13 04:23:00;;;;;;;17.20;5.90;;;;;;;42.08;36.17;100707.50;6159378;23;20714;-83
2023/04/13 04:25:26;;;;;;;17.00;6.83;;;;;;;42.00;35.92;100707.59;6159611;23;20392;-82
2023/04/13 04:27:56;;;;;;;19.13;7.37;;;;;;;42.10;36.02;100716.09;6158955;23;20721;-82
2023/04/13 04:30:23;;;;;;;12.53;5.10;;;;;;;42.05;35.66;100715.53;6159382;23;20927;-83
2023/04/13 04:32:53;;;;;;;13.90;6.47;;;;;;;41.99;35.87;100719.59;6159342;23;20439;-83
2023/04/13 04:35:20;;;;;;;20.23;6.60;;;;;;;42.17;35.96;100725.69;6159454;23;20388;-82
2023/04/13 04:37:48;;;;;;;29.20;7.57;;;;;;;42.13;35.65;100722.84;6159071;23;20459;-83
2023/04/13 04:40:15;;;;;;;14.13;5.93;;;;;;;42.00;35.70;100715.78;6159508;23;20440;-82
2023/04/13 04:42:41;;;;;;;24.33;7.37;;;;;;;42.10;35.81;100727.00;6159103;23;20536;-82
2023/04/13 04:45:15;;;;;;;19.23;7.57;;;;;;;42.06;35.42;100730.78;6185079;23;20440;-82
2023/04/13 04:47:42;;;;;;;12.23;5.53;;;;;;;42.08;35.08;100729.28;6159059;23;20395;-82
2023/04/13 04:50:13;;;;;;;20.83;6.10;;;;;;;42.02;34.91;100732.56;6158911;23;20448;-82
2023/04/13 04:52:40;;;;;;;24.70;6.93;;;;;;;42.03;34.85;100737.69;6159131;23;20463;-82
2023/04/13 04:55:07;;;;;;;13.50;6.27;;;;;;;42.15;35.33;100728.72;6158899;23;20738;-82
2023/04/13 04:57:33;;;;;;;14.90;6.00;;;;;;;42.08;35.41;100729.28;6159041;23;20424;-82
2023/04/13 05:00:00;;;;;;;17.03;6.60;;;;;;;42.08;35.59;100731.22;6185888;23;20372;-83
2023/04/13 05:02:27;;;;;;;23.30;5.97;;;;;;;42.04;35.76;100738.47;6159086;23;20412;-82
2023/04/13 05:04:54;;;;;;;20.30;6.80;;;;;;;42.06;35.32;100753.38;6160715;23;20385;-82
2023/04/13 05:07:21;;;;;;;18.13;8.80;;;;;;;42.08;35.29;100747.56;6161101;23;20392;-82
2023/04/13 05:09:47;;;;;;;17.97;6.30;;;;;;;42.10;35.42;100745.28;6159019;23;20962;-83
2023/04/13 05:12:13;;;;;;;14.67;5.13;;;;;;;42.10;35.46;100737.91;6158090;23;20385;-82
2023/04/13 05:14:39;;;;;;;17.37;5.80;;;;;;;42.07;35.14;100732.34;6159103;23;20876;-83
2023/04/13 05:17:04;;;;;;;28.30;8.00;;;;;;;42.11;35.88;100738.72;6158617;23;20184;-83
2023/04/13 05:19:31;;;;;;;14.03;5.77;;;;;;;41.98;35.74;100731.66;6158958;23;20888;-82
2023/04/13 05:21:59;;;;;;;18.33;6.23;;;;;;;42.01;35.92;100734.50;6158985;23;20160;-82
2023/04/13 05:24:26;;;;;;;26.13;6.63;;;;;;;42.02;36.16;100740.75;6158813;23;20716;-82
2023/04/13 05:26:52;;;;;;;17.83;7.50;;;;;;;42.15;35.89;100736.91;6157996;23;20381;-82
2023/04/13 05:29:17;;;;;;;19.80;7.23;;;;;;;42.18;35.38;100743.66;6158503;23;20411;-83
2023/04/13 05:31:44;;;;;;;17.27;5.97;;;;;;;42.28;35.56;100743.19;6158950;23;20372;-83
2023/04/13 05:34:10;;;;;;;18.03;5.90;;;;;;;42.18;35.39;100741.72;6158818;23;20157;-79
2023/04/13 05:36:36;;;;;;;17.03;6.00;;;;;;;42.19;35.26;100748.75;6158410;23;20404;-82
2023/04/13 05:39:03;;;;;;;18.10;5.93;;;;;;;42.13;35.74;100747.38;6158617;23;20403;-82
2023/04/13 05:41:29;;;;;;;13.87;6.37;;;;;;;42.15;35.84;100745.09;6158453;23;20388;-82
2023/04/13 05:43:55;;;;;;;14.97;6.20;;;;;;;42.16;35.60;100746.69;6158484;23;20455;-82
2023/04/13 05:46:21;;;;;;;15.57;5.40;;;;;;;42.16;36.05;100741.25;6158714;23;20861;-82
2023/04/13 05:48:47;;;;;;;16.57;7.20;;;;;;;42.14;36.06;100744.28;6158569;23;20408;-82
2023/04/13 05:51:14;;;;;;;21.90;8.33;;;;;;;42.18;36.10;100740.94;6157436;23;20448;-84
2023/04/13 05:53:40;;;;;;;17.50;6.50;;;;;;;42.21;35.63;100748.41;6158953;23;20561;-83
2023/04/13 05:56:06;;;;;;;13.93;6.37;;;;;;;42.12;36.19;100754.75;6158441;23;20861;-83
2023/04/13 05:58:33;;;;;;;32.67;8.77;;;;;;;42.18;35.79;100749.09;6183881;23;20979;-85
2023/04/13 06:01:02;;;;;;;26.33;6.20;;;;;;;42.16;36.42;100762.22;6158468;23;20380;-84
2023/04/13 06:03:28;;;;;;;13.40;6.60;;;;;;;42.11;35.89;100757.78;6158665;23;20391;-83
2023/04/13 06:05:55;;;;;;;14.13;5.50;;;;;;;42.18;36.23;100763.53;6158725;23;20392;-83
2023/04/13 06:08:21;;;;;;;20.60;7.43;;;;;;;42.28;35.75;100760.34;6158305;23;20256;-82
2023/04/13 06:10:47;;;;;;;18.70;6.40;;;;;;;42.29;35.78;100763.88;6159983;23;20392;-83
2023/04/13 06:13:13;;;;;;;29.60;6.37;;;;;;;42.22;36.12;100778.06;6186596;23;20356;-84
2023/04/13 06:15:40;;;;;;;17.43;8.00;;;;;;;42.19;36.33;100784.19;6158525;23;20387;-86
2023/04/13 06:18:06;;;;;;;18.87;5.40;;;;;;;42.31;36.33;100791.59;6157273;23;20463;-87
2023/04/13 06:20:32;;;;;;;15.70;7.63;;;;;;;42.33;36.03;100789.31;6157234;23;20383;-86
2023/04/13 06:22:59;;;;;;;20.93;7.30;;;;;;;42.25;35.93;100799.19;6157021;23;20423;-86
2023/04/13 06:25:25;;;;;;;22.50;7.53;;;;;;;42.20;35.52;100785.78;6158370;23;20395;-85
2023/04/13 06:27:52;;;;;;;20.03;8.63;;;;;;;42.27;35.44;100799.66;6157462;23;20476;-86
2023/04/13 06:30:18;;;;;;;14.97;8.50;;;;;;;42.19;35.99;100800.56;6158620;23;20491;-85
2023/04/13 06:32:44;;;;;;;20.87;6.70;;;;;;;42.30;35.85;100800.91;6158967;23;20424;-86
2023/04/13 06:35:11;;;;;;;18.63;7.70;;;;;;;42.40;35.86;100809.44;6157811;23;20391;-83
2023/04/13 06:37:38;;;;;;;15.30;6.80;;;;;;;42.44;35.49;100812.28;6155961;23;20431;-86
2023/04/13 06:40:11;;;;;;;14.43;6.00;;;;;;;42.35;35.24;100809.66;6156247;23;20393;-85
2023/04/13 06:42:41;;;;;;;23.17;10.37;;;;;;;42.28;35.27;100811.34;6156086;23;20503;-83
2023/04/13 06:45:08;;;;;;;24.50;7.43;;;;;;;42.20;35.47;100821.22;6155803;23;20385;-83
2023/04/13 06:47:35;;;;;;;26.30;6.47;;;;;;;42.27;35.53;100831.56;6156120;23;20437;-82
2023/04/13 06:50:06;;;;;;;17.80;7.27;;;;;;;42.29;35.27;100830.09;6156038;23;20490;-82
2023/04/13 06:52:36;;;;;;;16.60;6.73;;;;;;;42.40;35.15;100828.53;6157871;23;20396;-82
2023/04/13 06:55:03;;;;;;;18.60;7.53;;;;;;;42.36;35.47;100841.25;6158149;23;20377;-83
2023/04/13 06:57:29;;;;;;;15.63;6.37;;;;;;;42.44;35.12;100846.94;6158018;23;20781;-83
2023/04/13 06:59:55;;;;;;;16.80;5.47;;;;;;;42.48;35.05;100845.13;6158284;23;20376;-82
2023/04/13 07:02:21;;;;;;;28.10;6.00;;;;;;;42.50;35.31;100849.13;6158501;23;20445;-82
2023/04/13 07:04:47;;;;;;;21.80;6.67;;;;;;;42.51;34.89;100858.09;6158006;23;20402;-83
2023/04/13 07:07:13;;;;;;;11.10;5.83;;;;;;;42.37;35.27;100861.94;6158069;23;20376;-83
2023/04/13 07:09:40;;;;;;;15.23;6.97;;;;;;;42.47;35.18;100857.16;6157793;23;20384;-82
2023/04/13 07:12:06;;;;;;;17.67;7.13;;;;;;;42.42;35.11;100866.38;6158258;23;20384;-82
2023/04/13 07:14:37;;;;;;;13.50;6.77;;;;;;;42.24;35.36;100873.94;6157646;23;20408;-83
2023/04/13 07:17:03;;;;;;;21.03;7.13;;;;;;;42.39;35.50;100870.56;6158057;23;20428;-83
2023/04/13 07:19:30;;;;;;;24.93;6.53;;;;;;;42.31;35.18;100862.50;6158155;23;20404;-82
2023/04/13 07:22:00;;;;;;;15.63;5.90;;;;;;;42.34;35.10;100873.50;6158031;23;20404;-82
2023/04/13 07:24:27;;;;;;;14.27;7.10;;;;;;;42.40;34.84;100872.16;6158036;23;20849;-82
2023/04/13 07:26:57;;;;;;;16.70;7.80;;;;;;;42.38;35.24;100884.53;6157592;23;20376;-82
2023/04/13 07:29:26;;;;;;;17.70;6.83;;;;;;;42.50;34.84;100884.56;6157527;23;20872;-82
2023/04/13 07:31:57;;;;;;;14.77;5.37;;;;;;;42.50;34.54;100894.69;6157933;23;20384;-82
2023/04/13 07:34:25;;;;;;;24.50;6.70;;;;;;;42.49;34.40;100901.28;6157943;23;20372;-82
2023/04/13 07:36:51;;;;;;;18.47;7.27;;;;;;;42.61;34.73;100904.06;6157952;23;20432;-82
2023/04/13 07:39:17;;;;;;;15.73;6.83;;;;;;;42.64;35.02;100908.81;6157978;23;20387;-82
2023/04/13 07:41:45;;;;;;;13.90;7.03;;;;;;;42.71;34.60;100911.78;6157889;23;20873;-83
2023/04/13 07:44:11;;;;;;;21.10;8.90;;;;;;;42.70;34.63;100921.13;6157965;23;20393;-80
2023/04/13 07:46:37;;;;;;;21.43;6.20;;;;;;;42.78;34.27;100917.47;6158705;23;20391;-81
2023/04/13 07:49:03;;;;;;;16.23;6.83;;;;;;;42.77;34.56;100923.28;6157626;23;20460;-82
2023/04/13 07:51:31;;;;;;;22.10;8.20;;;;;;;42.58;34.51;100930.06;6159483;23;20535;-81
2023/04/13 07:53:57;;;;;;;13.37;5.70;;;;;;;42.62;34.87;100936.44;6186270;23;20175;-81
2023/04/13 07:56:23;;;;;;;16.33;6.00;;;;;;;42.63;34.85;100937.25;6159817;23;20435;-81
2023/04/13 07:58:49;;;;;;;27.53;6.10;;;;;;;42.65;35.25;100941.22;6159411;23;20808;-81
2023/04/13 08:01:15;;;;;;;14.67;6.63;;;;;;;42.55;35.36;100932.66;6159736;23;20184;-82
2023/04/13 08:03:41;;;;;;;13.40;6.07;;;;;;;42.63;35.37;100946.22;6159381;23;20392;-82
2023/04/13 08:06:08;;;;;;;15.13;5.63;;;;;;;42.73;35.14;100946.94;6159389;23;20396;-81
2023/04/13 08:08:34;;;;;;;13.27;5.70;;;;;;;42.67;34.61;100953.75;6159398;23;20152;-81
2023/04/13 08:11:00;;;;;;;18.07;7.60;;;;;;;42.65;34.77;100948.59;6186379;23;20415;-80
2023/04/13 08:13:30;;;;;;;18.83;5.63;;;;;;;42.77;35.11;100951.34;6159755;23;20463;-81
2023/04/13 08:15:56;;;;;;;21.50;6.83;;;;;;;42.73;34.96;100961.38;6159646;23;20438;-82
2023/04/13 08:18:23;;;;;;;21.87;7.37;;;;;;;42.76;35.00;100963.41;6159396;23;20920;-82
2023/04/13 08:20:49;;;;;;;20.60;8.07;;;;;;;42.68;35.19;100974.44;6159970;23;20380;-81
2023/04/13 08:23:15;;;;;;;16.17;6.50;;;;;;;42.70;34.54;100974.88;6158886;23;20422;-81
2023/04/13 08:25:41;;;;;;;17.13;8.30;;;;;;;42.72;35.13;100978.84;6159404;23;20178;-81
2023/04/13 08:28:08;;;;;;;28.37;7.17;;;;;;;42.88;35.10;100976.28;6159359;23;20438;-81
2023/04/13 08:30:34;;;;;;;25.03;8.93;;;;;;;42.74;34.87;100984.00;6159616;23;20487;-81
2023/04/13 08:33:01;;;;;;;18.20;6.40;;;;;;;42.75;34.40;100991.84;6159332;23;20384;-81
2023/04/13 08:35:27;;;;;;;20.00;7.27;;;;;;;42.76;34.90;100987.97;6159542;23;20388;-81
2023/04/13 08:37:55;;;;;;;18.97;7.27;;;;;;;42.76;35.27;100985.25;6158822;23;20518;-81
2023/04/13 08:40:21;;;;;;;18.53;6.03;;;;;;;42.87;34.83;100989.13;6159419;23;20842;-81
2023/04/13 08:42:48;;;;;;;15.50;5.80;;;;;;;42.84;34.93;100992.53;6159375;23;20399;-81
2023/04/13 08:45:15;;;;;;;20.70;6.60;;;;;;;42.75;34.63;100999.22;6185998;23;20404;-81
2023/04/13 08:47:41;;;;;;;12.43;7.70;;;;;;;42.85;34.71;101002.34;6159311;23;20454;-81
2023/04/13 08:50:08;;;;;;;12.90;6.13;;;;;;;42.80;35.11;101007.19;6158909;23;20662;-81
2023/04/13 08:52:35;;;;;;;16.43;8.00;;;;;;;42.72;35.80;100997.94;6159549;23;20394;-81
2023/04/13 08:55:04;;;;;;;18.07;5.50;;;;;;;42.79;34.87;101003.69;6159235;23;20873;-81
2023/04/13 08:57:31;;;;;;;19.73;6.67;;;;;;;42.86;34.97;101000.41;6159119;23;20454;-81
2023/04/13 08:59:58;;;;;;;18.93;6.10;;;;;;;42.96;34.85;101008.13;6159084;23;20388;-81
2023/04/13 09:02:30;;;;;;;17.23;6.23;;;;;;;42.93;34.23;101006.09;6158938;23;20388;-80
2023/04/13 09:05:04;;;;;;;13.47;5.43;;;;;;;42.94;34.35;101004.94;6159531;23;20442;-81
2023/04/13 09:07:35;;;;;;;21.30;6.30;;;;;;;42.95;34.08;101000.28;6158893;23;20703;-81
2023/04/13 09:10:04;;;;;;;12.30;6.47;;;;;;;42.99;34.67;100999.31;6159063;23;20845;-81
2023/04/13 09:12:32;;;;;;;15.90;6.03;;;;;;;42.97;34.57;101006.19;6159099;23;20411;-80
2023/04/13 09:14:58;;;;;;;19.97;5.27;;;;;;;43.05;34.47;101008.88;6158923;23;20392;-80
2023/04/13 09:17:29;;;;;;;12.17;7.07;;;;;;;43.11;34.67;101004.00;6158775;23;20430;-82
2023/04/13 09:19:56;;;;;;;16.20;6.27;;;;;;;43.22;34.63;101005.16;6158982;23;20387;-81
2023/04/13 09:22:23;;;;;;;14.57;6.70;;;;;;;43.23;34.69;101012.19;6185671;23;20380;-81
2023/04/13 09:24:49;;;;;;;13.70;4.77;;;;;;;43.26;34.57;101005.25;6158750;23;20384;-81
2023/04/13 09:27:19;;;;;;;14.20;6.60;;;;;;;43.15;34.23;101002.16;6159220;23;20392;-81
2023/04/13 09:29:54;;;;;;;14.40;4.80;;;;;;;43.17;34.32;101008.09;6158573;23;20208;-81
2023/04/13 09:32:29;;;;;;;18.80;6.20;;;;;;;43.29;34.16;101010.84;6158964;23;20387;-81
2023/04/13 09:35:02;;;;;;;14.97;6.07;;;;;;;43.28;33.50;101008.44;6158981;23;20391;-80
2023/04/13 09:37:27;;;;;;;11.20;4.70;;;;;;;43.29;33.89;101010.03;6158752;23;20498;-81
2023/04/13 09:39:54;;;;;;;14.93;5.77;;;;;;;43.14;34.21;101019.69;6158551;23;20918;-81
2023/04/13 09:42:20;;;;;;;20.23;6.67;;;;;;;43.30;33.58;101015.16;6158809;23;20163;-82
2023/04/13 09:44:58;;;;;;;16.20;5.40;;;;;;;43.19;33.87;101016.75;6158743;23;20388;-82
2023/04/13 09:47:25;;;;;;;10.80;5.10;;;;;;;43.42;33.31;101017.13;6159112;23;20408;-82
2023/04/13 09:49:51;;;;;;;13.70;5.60;;;;;;;43.44;33.28;101021.09;6157791;23;20514;-83
2023/04/13 09:52:22;;;;;;;18.73;5.20;;;;;;;43.40;33.75;101016.66;6158544;23;20396;-82
2023/04/13 09:54:53;;;;;;;17.73;6.83;;;;;;;43.45;32.90;101019.16;6159590;23;20384;-82
2023/04/13 09:57:30;;;;;;;12.70;6.10;;;;;;;43.31;32.23;101018.69;6158366;23;20420;-82
2023/04/13 09:59:59;;;;;;;14.03;5.63;;;;;;;43.36;32.57;101013.00;6158700;23;20408;-82
2023/04/13 10:02:26;;;;;;;16.03;5.87;;;;;;;43.37;32.73;101014.59;6158267;23;20383;-81
2023/04/13 10:04:53;;;;;;;19.63;6.33;;;;;;;43.37;33.17;101009.13;6158418;23;20388;-82
2023/04/13 10:07:20;;;;;;;12.13;6.13;;;;;;;43.50;33.08;101001.75;6158364;23;20380;-82
2023/04/13 10:09:46;;;;;;;12.77;5.80;;;;;;;43.53;32.91;101012.81;6159098;23;20442;-82
2023/04/13 10:12:15;;;;;;;15.57;5.77;;;;;;;43.52;32.95;101002.22;6158109;23;20775;-82
2023/04/13 10:14:44;;;;;;;17.40;7.30;;;;;;;43.42;33.20;101004.28;6158064;23;20482;-81
2023/04/13 10:17:36;;;;;;;26.87;9.80;;;;;;;43.24;33.03;101016.53;6157886;23;20423;-81
2023/04/13 10:20:11;;;;;;;14.00;5.17;;;;;;;43.49;32.85;101008.38;6158301;23;20380;-81
2023/04/13 10:22:39;;;;;;;17.17;4.73;;;;;;;43.53;33.34;101001.09;6158381;23;20411;-83
2023/04/13 10:25:06;;;;;;;12.17;5.40;;;;;;;43.47;32.47;101002.47;6158170;23;20785;-82
2023/04/13 10:27:35;;;;;;;17.50;5.80;;;;;;;43.25;33.13;101001.72;6158299;23;20706;-82
2023/04/13 10:30:13;;;;;;;13.73;4.67;;;;;;;43.38;32.71;100997.06;6184964;23;20361;-82
2023/04/13 10:32:41;;;;;;;19.73;8.00;;;;;;;43.35;33.16;101005.97;6158371;23;20475;-83
2023/04/13 10:35:12;;;;;;;13.60;6.10;;;;;;;43.43;32.76;100994.13;6158664;23;20443;-82
2023/04/13 10:37:39;;;;;;;16.53;6.23;;;;;;;43.45;33.00;100992.66;6158186;23;20431;-82
2023/04/13 10:40:12;;;;;;;21.20;5.53;;;;;;;43.39;32.93;101010.41;6158342;23;20388;-81
2023/04/13 10:42:45;;;;;;;16.37;5.70;;;;;;;43.37;32.57;100996.28;6158286;23;20395;-82
2023/04/13 10:45:26;;;;;;;22.60;5.80;;;;;;;43.45;32.77;100998.13;6158271;23;20863;-82
2023/04/13 10:47:57;;;;;;;17.33;7.00;;;;;;;43.32;32.94;101001.94;6158252;23;20404;-82
2023/04/13 10:50:26;;;;;;;18.37;7.37;;;;;;;43.35;32.88;101004.00;6158194;23;20447;-82
2023/04/13 10:53:03;;;;;;;13.33;4.80;;;;;;;43.34;32.83;100993.41;6184793;23;20921;-81
2023/04/13 10:55:29;;;;;;;16.40;5.00;;;;;;;43.49;32.47;100987.31;6184997;23;20360;-82
2023/04/13 10:57:58;;;;;;;13.57;5.43;;;;;;;43.50;32.67;100979.91;6184595;23;20412;-82
2023/04/13 11:00:27;;;;;;;14.90;5.00;;;;;;;43.50;33.33;100979.91;6158984;23;20407;-83
2023/04/13 11:02:57;;;;;;;18.77;5.57;;;;;;;43.52;33.16;100974.91;6158553;23;20399;-84
2023/04/13 11:05:25;;;;;;;11.90;4.73;;;;;;;43.64;33.55;100972.16;6157988;23;20391;-85
2023/04/13 11:07:53;;;;;;;14.07;5.10;;;;;;;43.48;33.39;100974.00;6158368;23;20408;-85
2023/04/13 11:10:26;;;;;;;11.00;5.43;;;;;;;43.49;33.05;100970.91;6158349;23;20387;-85
2023/04/13 11:12:54;;;;;;;18.47;6.40;;;;;;;43.53;33.25;100969.09;6158086;23;20388;-85
2023/04/13 11:15:26;;;;;;;14.40;4.90;;;;;;;43.44;32.99;100954.75;6158052;23;20379;-85
2023/04/13 11:17:55;;;;;;;12.07;5.30;;;;;;;43.64;33.38;100962.00;6157925;23;20441;-85
2023/04/13 11:20:38;;;;;;;19.93;6.53;;;;;;;43.60;33.54;100969.31;6158303;23;20380;-85